Página principal
METAR-TAF:

METAR-TAF

Aeroportos :

Taraz, Cazaquistão

latitude: 42-51-13N, longitude: 071-18-13E, altura: 666 m

Observação actual do tempo

O boletim foi feito há 12 minutos, às 02:30 UTC
Vento 2 kt com direcção variável
Temperatura 14°C
Humidade 41%
Pressão 1019 hPa
Visibilidade 10 km ou mais

METAR: UADD 230230Z VRB01MPS 9999 NSC 14/01 Q1019 R13/0///65 NOSIG RMK QFE707/0943

Hora: 08:42 (02:42 UTC)

Previsão

O boletim foi feito há 3 horas e 42 minutos, às 23:00 UTC
Previsão válida de 23 às 00 UTC a 23 às 09 UTC
Vento 6 kt de noroeste com rajadas de 16 kt
Visibilidade 10 km ou mais
Nuvens dispersasa uma altura de 5000 ft
Nuvens fragmentadasa uma altura de 10000 ft

TAF: UADD 222300Z 2300/2309 32003G08MPS 9999 SCT050 BKN100

Observações e previsões do tempo de mais de 4000 aeroportos (mensagens METAR e TAF).

As estações disponíveis são os pontos amarelos e vermelhos sobre o mapa.

Mova o rato sobre o mapa para ver o nome da estação.

Depois clique no ponto para visualizar as observações e previsões meteorológicas.

Para alterar o mapa : clique nos botões verdes com uma cruz preta para aumentar o zoom; no botão verde com uma pitada de zoom; ou nas setas verdes para mapas adjacentes.


METAR-TAF: